sensor_id;sensor_type;location;lat;lon;timestamp;P1;durP1;ratioP1;P2;durP2;ratioP2
22628;SDS011;11481;53.694;9.910;2022-12-29T00:02:26;4.03;;;1.70;;
22628;SDS011;11481;53.694;9.910;2022-12-29T00:04:53;2.85;;;1.45;;
22628;SDS011;11481;53.694;9.910;2022-12-29T00:07:20;3.00;;;1.38;;
22628;SDS011;11481;53.694;9.910;2022-12-29T00:09:46;3.22;;;1.80;;
22628;SDS011;11481;53.694;9.910;2022-12-29T00:12:13;2.83;;;1.52;;
22628;SDS011;11481;53.694;9.910;2022-12-29T00:14:40;2.15;;;1.00;;
22628;SDS011;11481;53.694;9.910;2022-12-29T00:17:25;4.20;;;1.60;;
22628;SDS011;11481;53.694;9.910;2022-12-29T00:19:51;1.40;;;0.88;;
22628;SDS011;11481;53.694;9.910;2022-12-29T00:22:37;1.80;;;1.27;;
22628;SDS011;11481;53.694;9.910;2022-12-29T00:25:22;2.28;;;1.42;;
22628;SDS011;11481;53.694;9.910;2022-12-29T00:28:08;1.67;;;1.27;;
22628;SDS011;11481;53.694;9.910;2022-12-29T00:30:58;1.95;;;1.23;;
22628;SDS011;11481;53.694;9.910;2022-12-29T00:33:46;4.90;;;1.77;;
22628;SDS011;11481;53.694;9.910;2022-12-29T00:36:32;2.25;;;1.52;;
22628;SDS011;11481;53.694;9.910;2022-12-29T00:39:03;3.53;;;1.30;;
22628;SDS011;11481;53.694;9.910;2022-12-29T00:42:02;2.88;;;1.17;;
22628;SDS011;11481;53.694;9.910;2022-12-29T00:44:51;2.22;;;1.27;;
22628;SDS011;11481;53.694;9.910;2022-12-29T00:47:17;3.10;;;1.25;;
22628;SDS011;11481;53.694;9.910;2022-12-29T00:49:44;5.70;;;2.35;;
22628;SDS011;11481;53.694;9.910;2022-12-29T00:52:11;3.85;;;1.70;;
22628;SDS011;11481;53.694;9.910;2022-12-29T00:54:39;4.35;;;1.95;;
22628;SDS011;11481;53.694;9.910;2022-12-29T00:57:07;3.53;;;1.58;;
22628;SDS011;11481;53.694;9.910;2022-12-29T00:59:36;8.95;;;2.13;;
22628;SDS011;11481;53.694;9.910;2022-12-29T01:02:04;4.10;;;1.67;;
22628;SDS011;11481;53.694;9.910;2022-12-29T01:04:31;3.45;;;1.67;;
22628;SDS011;11481;53.694;9.910;2022-12-29T01:06:58;3.28;;;1.77;;
22628;SDS011;11481;53.694;9.910;2022-12-29T01:09:25;3.90;;;2.03;;
22628;SDS011;11481;53.694;9.910;2022-12-29T01:12:10;4.53;;;2.15;;
22628;SDS011;11481;53.694;9.910;2022-12-29T01:14:37;4.07;;;2.38;;
22628;SDS011;11481;53.694;9.910;2022-12-29T01:17:05;3.92;;;1.95;;
22628;SDS011;11481;53.694;9.910;2022-12-29T01:19:32;3.03;;;1.42;;
22628;SDS011;11481;53.694;9.910;2022-12-29T01:21:59;3.25;;;1.60;;
22628;SDS011;11481;53.694;9.910;2022-12-29T01:24:25;4.20;;;2.03;;
22628;SDS011;11481;53.694;9.910;2022-12-29T01:26:52;4.22;;;1.83;;
22628;SDS011;11481;53.694;9.910;2022-12-29T01:29:20;5.38;;;2.60;;
22628;SDS011;11481;53.694;9.910;2022-12-29T01:31:47;4.38;;;2.15;;
22628;SDS011;11481;53.694;9.910;2022-12-29T01:34:15;3.55;;;1.92;;
22628;SDS011;11481;53.694;9.910;2022-12-29T01:36:43;2.90;;;1.58;;
22628;SDS011;11481;53.694;9.910;2022-12-29T01:39:10;3.10;;;1.52;;
22628;SDS011;11481;53.694;9.910;2022-12-29T01:41:36;3.38;;;1.95;;
22628;SDS011;11481;53.694;9.910;2022-12-29T01:44:39;2.95;;;1.38;;
22628;SDS011;11481;53.694;9.910;2022-12-29T01:47:08;2.17;;;1.35;;
22628;SDS011;11481;53.694;9.910;2022-12-29T01:49:34;6.03;;;1.90;;
22628;SDS011;11481;53.694;9.910;2022-12-29T01:52:02;5.75;;;2.10;;
22628;SDS011;11481;53.694;9.910;2022-12-29T01:54:35;3.53;;;1.63;;
22628;SDS011;11481;53.694;9.910;2022-12-29T01:57:10;3.97;;;1.55;;
22628;SDS011;11481;53.694;9.910;2022-12-29T01:59:41;3.28;;;1.77;;
22628;SDS011;11481;53.694;9.910;2022-12-29T02:02:12;4.05;;;2.08;;
22628;SDS011;11481;53.694;9.910;2022-12-29T02:04:40;4.50;;;2.05;;
22628;SDS011;11481;53.694;9.910;2022-12-29T02:07:14;5.03;;;1.85;;
22628;SDS011;11481;53.694;9.910;2022-12-29T02:09:46;3.15;;;1.88;;
22628;SDS011;11481;53.694;9.910;2022-12-29T02:12:14;3.67;;;1.73;;
22628;SDS011;11481;53.694;9.910;2022-12-29T02:14:43;4.07;;;2.28;;
22628;SDS011;11481;53.694;9.910;2022-12-29T02:17:16;14.57;;;2.30;;
22628;SDS011;11481;53.694;9.910;2022-12-29T02:31:30;4.88;;;2.30;;
22628;SDS011;11481;53.694;9.910;2022-12-29T02:37:06;2.85;;;1.38;;
22628;SDS011;11481;53.694;9.910;2022-12-29T02:42:46;5.10;;;2.00;;
22628;SDS011;11481;53.694;9.910;2022-12-29T02:45:24;4.28;;;1.80;;
22628;SDS011;11481;53.694;9.910;2022-12-29T02:48:18;3.33;;;2.05;;
22628;SDS011;11481;53.694;9.910;2022-12-29T02:51:26;4.05;;;1.77;;
22628;SDS011;11481;53.694;9.910;2022-12-29T02:53:58;3.17;;;1.52;;
22628;SDS011;11481;53.694;9.910;2022-12-29T02:56:44;8.77;;;2.35;;
22628;SDS011;11481;53.694;9.910;2022-12-29T02:59:11;4.70;;;2.40;;
22628;SDS011;11481;53.694;9.910;2022-12-29T03:01:55;3.35;;;1.67;;
22628;SDS011;11481;53.694;9.910;2022-12-29T03:09:52;3.85;;;1.73;;
22628;SDS011;11481;53.694;9.910;2022-12-29T03:15:38;7.45;;;2.25;;
22628;SDS011;11481;53.694;9.910;2022-12-29T03:18:29;2.42;;;1.45;;
22628;SDS011;11481;53.694;9.910;2022-12-29T03:21:02;3.55;;;1.73;;
22628;SDS011;11481;53.694;9.910;2022-12-29T03:24:27;4.18;;;1.73;;
22628;SDS011;11481;53.694;9.910;2022-12-29T03:26:58;7.28;;;2.03;;
22628;SDS011;11481;53.694;9.910;2022-12-29T03:29:27;7.07;;;2.00;;
22628;SDS011;11481;53.694;9.910;2022-12-29T03:31:56;2.42;;;1.38;;
22628;SDS011;11481;53.694;9.910;2022-12-29T03:34:25;3.70;;;1.73;;
22628;SDS011;11481;53.694;9.910;2022-12-29T03:36:53;3.42;;;1.80;;
22628;SDS011;11481;53.694;9.910;2022-12-29T03:39:23;4.40;;;1.60;;
22628;SDS011;11481;53.694;9.910;2022-12-29T03:41:52;4.40;;;1.67;;
22628;SDS011;11481;53.694;9.910;2022-12-29T03:44:35;2.75;;;1.33;;
22628;SDS011;11481;53.694;9.910;2022-12-29T03:47:05;3.92;;;1.70;;
22628;SDS011;11481;53.694;9.910;2022-12-29T03:49:32;2.92;;;1.48;;
22628;SDS011;11481;53.694;9.910;2022-12-29T03:51:59;4.88;;;1.98;;
22628;SDS011;11481;53.694;9.910;2022-12-29T03:54:26;3.33;;;1.60;;
22628;SDS011;11481;53.694;9.910;2022-12-29T03:56:52;4.07;;;1.80;;
22628;SDS011;11481;53.694;9.910;2022-12-29T03:59:19;2.58;;;1.60;;
22628;SDS011;11481;53.694;9.910;2022-12-29T04:01:45;2.90;;;1.38;;
22628;SDS011;11481;53.694;9.910;2022-12-29T04:04:13;3.80;;;1.52;;
22628;SDS011;11481;53.694;9.910;2022-12-29T04:06:39;3.92;;;2.17;;
22628;SDS011;11481;53.694;9.910;2022-12-29T04:09:06;3.72;;;1.58;;
22628;SDS011;11481;53.694;9.910;2022-12-29T04:11:33;4.30;;;2.08;;
22628;SDS011;11481;53.694;9.910;2022-12-29T04:14:00;4.47;;;1.92;;
22628;SDS011;11481;53.694;9.910;2022-12-29T04:16:27;3.72;;;2.03;;
22628;SDS011;11481;53.694;9.910;2022-12-29T04:18:53;2.47;;;1.42;;
22628;SDS011;11481;53.694;9.910;2022-12-29T04:21:20;2.83;;;1.48;;
22628;SDS011;11481;53.694;9.910;2022-12-29T04:23:46;3.55;;;2.08;;
22628;SDS011;11481;53.694;9.910;2022-12-29T04:26:13;2.67;;;1.27;;
22628;SDS011;11481;53.694;9.910;2022-12-29T04:28:40;2.20;;;1.48;;
22628;SDS011;11481;53.694;9.910;2022-12-29T04:31:06;7.15;;;1.60;;
22628;SDS011;11481;53.694;9.910;2022-12-29T04:33:33;4.07;;;1.85;;
22628;SDS011;11481;53.694;9.910;2022-12-29T04:36:00;3.20;;;1.58;;
22628;SDS011;11481;53.694;9.910;2022-12-29T04:38:26;2.63;;;1.55;;
22628;SDS011;11481;53.694;9.910;2022-12-29T04:40:53;3.35;;;1.23;;
22628;SDS011;11481;53.694;9.910;2022-12-29T04:43:19;1.52;;;1.00;;
22628;SDS011;11481;53.694;9.910;2022-12-29T04:45:48;3.15;;;1.38;;
22628;SDS011;11481;53.694;9.910;2022-12-29T04:48:14;2.85;;;1.25;;
22628;SDS011;11481;53.694;9.910;2022-12-29T04:50:41;2.67;;;1.02;;
22628;SDS011;11481;53.694;9.910;2022-12-29T04:53:08;0.93;;;0.80;;
22628;SDS011;11481;53.694;9.910;2022-12-29T04:55:35;1.70;;;1.00;;
22628;SDS011;11481;53.694;9.910;2022-12-29T04:58:02;2.28;;;1.20;;
22628;SDS011;11481;53.694;9.910;2022-12-29T05:00:28;2.72;;;0.98;;
22628;SDS011;11481;53.694;9.910;2022-12-29T05:02:55;2.00;;;1.08;;
22628;SDS011;11481;53.694;9.910;2022-12-29T05:05:22;1.55;;;0.70;;
22628;SDS011;11481;53.694;9.910;2022-12-29T05:07:48;2.85;;;1.83;;
22628;SDS011;11481;53.694;9.910;2022-12-29T05:10:15;2.50;;;1.00;;
22628;SDS011;11481;53.694;9.910;2022-12-29T05:12:43;2.42;;;1.02;;
22628;SDS011;11481;53.694;9.910;2022-12-29T05:15:10;1.95;;;1.10;;
22628;SDS011;11481;53.694;9.910;2022-12-29T05:17:37;2.35;;;1.23;;
22628;SDS011;11481;53.694;9.910;2022-12-29T05:20:04;2.22;;;0.80;;
22628;SDS011;11481;53.694;9.910;2022-12-29T05:22:32;1.63;;;0.88;;
22628;SDS011;11481;53.694;9.910;2022-12-29T05:24:59;1.33;;;0.80;;
22628;SDS011;11481;53.694;9.910;2022-12-29T05:27:26;1.85;;;0.93;;
22628;SDS011;11481;53.694;9.910;2022-12-29T05:29:52;1.05;;;0.70;;
22628;SDS011;11481;53.694;9.910;2022-12-29T05:32:19;1.23;;;0.82;;
22628;SDS011;11481;53.694;9.910;2022-12-29T05:34:46;1.65;;;0.93;;
22628;SDS011;11481;53.694;9.910;2022-12-29T05:37:13;0.68;;;0.57;;
22628;SDS011;11481;53.694;9.910;2022-12-29T05:39:39;1.65;;;0.82;;
22628;SDS011;11481;53.694;9.910;2022-12-29T05:42:06;3.80;;;1.23;;
22628;SDS011;11481;53.694;9.910;2022-12-29T05:44:33;2.10;;;0.98;;
22628;SDS011;11481;53.694;9.910;2022-12-29T05:46:59;1.42;;;0.70;;
22628;SDS011;11481;53.694;9.910;2022-12-29T05:49:27;2.78;;;1.10;;
22628;SDS011;11481;53.694;9.910;2022-12-29T05:51:54;2.33;;;1.15;;
22628;SDS011;11481;53.694;9.910;2022-12-29T05:54:21;2.05;;;0.88;;
22628;SDS011;11481;53.694;9.910;2022-12-29T05:56:47;2.50;;;1.40;;
22628;SDS011;11481;53.694;9.910;2022-12-29T05:59:14;3.08;;;0.95;;
22628;SDS011;11481;53.694;9.910;2022-12-29T06:01:41;2.17;;;0.85;;
22628;SDS011;11481;53.694;9.910;2022-12-29T06:04:07;1.85;;;0.98;;
22628;SDS011;11481;53.694;9.910;2022-12-29T06:06:34;2.70;;;1.48;;
22628;SDS011;11481;53.694;9.910;2022-12-29T06:09:01;2.83;;;1.35;;
22628;SDS011;11481;53.694;9.910;2022-12-29T06:11:27;3.17;;;1.60;;
22628;SDS011;11481;53.694;9.910;2022-12-29T06:13:54;3.28;;;1.13;;
22628;SDS011;11481;53.694;9.910;2022-12-29T06:16:20;2.33;;;1.20;;
22628;SDS011;11481;53.694;9.910;2022-12-29T06:18:47;2.33;;;1.20;;
22628;SDS011;11481;53.694;9.910;2022-12-29T06:21:14;2.17;;;1.30;;
22628;SDS011;11481;53.694;9.910;2022-12-29T06:23:42;3.33;;;1.02;;
22628;SDS011;11481;53.694;9.910;2022-12-29T06:26:08;2.22;;;1.05;;
22628;SDS011;11481;53.694;9.910;2022-12-29T06:28:35;2.40;;;1.08;;
22628;SDS011;11481;53.694;9.910;2022-12-29T06:31:02;2.20;;;1.08;;
22628;SDS011;11481;53.694;9.910;2022-12-29T06:33:29;2.35;;;1.13;;
22628;SDS011;11481;53.694;9.910;2022-12-29T06:35:56;1.17;;;0.75;;
22628;SDS011;11481;53.694;9.910;2022-12-29T06:38:22;2.08;;;1.25;;
22628;SDS011;11481;53.694;9.910;2022-12-29T06:40:49;2.60;;;1.17;;
22628;SDS011;11481;53.694;9.910;2022-12-29T06:43:15;2.10;;;1.10;;
22628;SDS011;11481;53.694;9.910;2022-12-29T06:45:42;2.55;;;1.00;;
22628;SDS011;11481;53.694;9.910;2022-12-29T06:48:09;2.47;;;0.95;;
22628;SDS011;11481;53.694;9.910;2022-12-29T06:50:36;2.80;;;1.27;;
22628;SDS011;11481;53.694;9.910;2022-12-29T06:53:03;3.00;;;1.30;;
22628;SDS011;11481;53.694;9.910;2022-12-29T06:55:30;3.40;;;1.05;;
22628;SDS011;11481;53.694;9.910;2022-12-29T06:57:56;1.38;;;0.85;;
22628;SDS011;11481;53.694;9.910;2022-12-29T07:00:24;4.22;;;1.40;;
22628;SDS011;11481;53.694;9.910;2022-12-29T07:02:51;2.58;;;1.05;;
22628;SDS011;11481;53.694;9.910;2022-12-29T07:05:18;2.55;;;1.00;;
22628;SDS011;11481;53.694;9.910;2022-12-29T07:07:45;2.30;;;0.95;;
22628;SDS011;11481;53.694;9.910;2022-12-29T07:10:11;2.55;;;1.30;;
22628;SDS011;11481;53.694;9.910;2022-12-29T07:12:38;2.40;;;0.90;;
22628;SDS011;11481;53.694;9.910;2022-12-29T07:15:05;1.67;;;0.98;;
22628;SDS011;11481;53.694;9.910;2022-12-29T07:17:32;3.45;;;1.23;;
22628;SDS011;11481;53.694;9.910;2022-12-29T07:19:58;1.60;;;1.00;;
22628;SDS011;11481;53.694;9.910;2022-12-29T07:22:25;2.78;;;1.30;;
22628;SDS011;11481;53.694;9.910;2022-12-29T07:24:52;2.17;;;1.00;;
22628;SDS011;11481;53.694;9.910;2022-12-29T07:27:19;1.98;;;1.20;;
22628;SDS011;11481;53.694;9.910;2022-12-29T07:29:45;2.38;;;1.33;;
22628;SDS011;11481;53.694;9.910;2022-12-29T07:32:12;4.45;;;0.93;;
22628;SDS011;11481;53.694;9.910;2022-12-29T07:34:38;6.15;;;2.85;;
22628;SDS011;11481;53.694;9.910;2022-12-29T07:37:05;2.25;;;1.00;;
22628;SDS011;11481;53.694;9.910;2022-12-29T07:39:32;3.03;;;1.55;;
22628;SDS011;11481;53.694;9.910;2022-12-29T07:41:59;3.97;;;1.13;;
22628;SDS011;11481;53.694;9.910;2022-12-29T07:44:30;2.97;;;1.00;;
22628;SDS011;11481;53.694;9.910;2022-12-29T07:46:56;1.38;;;1.00;;
22628;SDS011;11481;53.694;9.910;2022-12-29T07:49:24;2.53;;;1.10;;
22628;SDS011;11481;53.694;9.910;2022-12-29T07:51:52;2.13;;;1.20;;
22628;SDS011;11481;53.694;9.910;2022-12-29T07:54:19;2.42;;;0.98;;
22628;SDS011;11481;53.694;9.910;2022-12-29T07:56:45;1.65;;;0.80;;
22628;SDS011;11481;53.694;9.910;2022-12-29T07:59:12;2.72;;;1.35;;
22628;SDS011;11481;53.694;9.910;2022-12-29T08:01:39;1.38;;;0.70;;
22628;SDS011;11481;53.694;9.910;2022-12-29T08:04:06;2.78;;;0.80;;
22628;SDS011;11481;53.694;9.910;2022-12-29T08:06:32;4.28;;;0.90;;
22628;SDS011;11481;53.694;9.910;2022-12-29T08:08:59;1.70;;;1.17;;
22628;SDS011;11481;53.694;9.910;2022-12-29T08:11:37;3.53;;;0.90;;
22628;SDS011;11481;53.694;9.910;2022-12-29T08:14:04;3.05;;;1.25;;
22628;SDS011;11481;53.694;9.910;2022-12-29T08:16:31;3.05;;;1.30;;
22628;SDS011;11481;53.694;9.910;2022-12-29T08:18:58;2.53;;;1.30;;
22628;SDS011;11481;53.694;9.910;2022-12-29T08:21:26;2.70;;;1.45;;
22628;SDS011;11481;53.694;9.910;2022-12-29T08:23:54;1.85;;;0.85;;
22628;SDS011;11481;53.694;9.910;2022-12-29T08:26:21;1.70;;;0.90;;
22628;SDS011;11481;53.694;9.910;2022-12-29T08:28:49;1.42;;;0.82;;
22628;SDS011;11481;53.694;9.910;2022-12-29T08:31:17;0.55;;;0.50;;
22628;SDS011;11481;53.694;9.910;2022-12-29T08:33:44;1.67;;;0.88;;
22628;SDS011;11481;53.694;9.910;2022-12-29T08:36:11;1.27;;;0.88;;
22628;SDS011;11481;53.694;9.910;2022-12-29T08:38:37;1.50;;;0.80;;
22628;SDS011;11481;53.694;9.910;2022-12-29T08:41:04;0.95;;;0.70;;
22628;SDS011;11481;53.694;9.910;2022-12-29T08:43:31;1.45;;;0.75;;
22628;SDS011;11481;53.694;9.910;2022-12-29T08:45:57;2.08;;;0.80;;
22628;SDS011;11481;53.694;9.910;2022-12-29T08:48:25;1.25;;;0.80;;
22628;SDS011;11481;53.694;9.910;2022-12-29T08:50:52;0.82;;;0.57;;
22628;SDS011;11481;53.694;9.910;2022-12-29T08:53:19;2.38;;;1.13;;
22628;SDS011;11481;53.694;9.910;2022-12-29T08:55:46;1.27;;;0.60;;
22628;SDS011;11481;53.694;9.910;2022-12-29T08:58:29;2.58;;;1.00;;
22628;SDS011;11481;53.694;9.910;2022-12-29T09:00:56;1.83;;;0.75;;
22628;SDS011;11481;53.694;9.910;2022-12-29T09:03:23;1.80;;;0.80;;
22628;SDS011;11481;53.694;9.910;2022-12-29T09:06:10;7.18;;;0.88;;
22628;SDS011;11481;53.694;9.910;2022-12-29T09:08:37;1.80;;;0.90;;
22628;SDS011;11481;53.694;9.910;2022-12-29T09:11:07;1.63;;;0.80;;
22628;SDS011;11481;53.694;9.910;2022-12-29T09:13:35;1.45;;;0.80;;
22628;SDS011;11481;53.694;9.910;2022-12-29T09:16:02;3.10;;;1.42;;
22628;SDS011;11481;53.694;9.910;2022-12-29T09:18:29;4.18;;;1.17;;
22628;SDS011;11481;53.694;9.910;2022-12-29T09:20:57;2.88;;;0.77;;
22628;SDS011;11481;53.694;9.910;2022-12-29T09:23:29;6.72;;;0.93;;
22628;SDS011;11481;53.694;9.910;2022-12-29T09:25:56;1.33;;;0.65;;
22628;SDS011;11481;53.694;9.910;2022-12-29T09:28:23;1.17;;;0.73;;
22628;SDS011;11481;53.694;9.910;2022-12-29T09:30:50;3.75;;;0.40;;
22628;SDS011;11481;53.694;9.910;2022-12-29T09:33:17;1.75;;;0.68;;
22628;SDS011;11481;53.694;9.910;2022-12-29T09:35:44;1.25;;;0.68;;
22628;SDS011;11481;53.694;9.910;2022-12-29T09:38:16;0.28;;;0.10;;
22628;SDS011;11481;53.694;9.910;2022-12-29T09:40:44;0.93;;;0.40;;
22628;SDS011;11481;53.694;9.910;2022-12-29T09:48:35;1.17;;;0.25;;
22628;SDS011;11481;53.694;9.910;2022-12-29T09:51:08;1.02;;;0.52;;
22628;SDS011;11481;53.694;9.910;2022-12-29T09:53:40;0.82;;;0.50;;
22628;SDS011;11481;53.694;9.910;2022-12-29T09:56:16;3.95;;;0.50;;
22628;SDS011;11481;53.694;9.910;2022-12-29T10:04:04;0.65;;;0.45;;
22628;SDS011;11481;53.694;9.910;2022-12-29T10:12:21;5.10;;;0.80;;
22628;SDS011;11481;53.694;9.910;2022-12-29T10:23:22;2.20;;;1.30;;
22628;SDS011;11481;53.694;9.910;2022-12-29T10:25:53;3.28;;;0.80;;
22628;SDS011;11481;53.694;9.910;2022-12-29T10:28:23;2.63;;;0.63;;
22628;SDS011;11481;53.694;9.910;2022-12-29T10:30:58;4.65;;;0.80;;
22628;SDS011;11481;53.694;9.910;2022-12-29T10:33:37;2.75;;;0.65;;
22628;SDS011;11481;53.694;9.910;2022-12-29T10:36:28;0.98;;;0.52;;
22628;SDS011;11481;53.694;9.910;2022-12-29T10:39:21;2.42;;;0.70;;
22628;SDS011;11481;53.694;9.910;2022-12-29T10:44:23;0.88;;;0.40;;
22628;SDS011;11481;53.694;9.910;2022-12-29T10:46:59;3.90;;;0.80;;
22628;SDS011;11481;53.694;9.910;2022-12-29T10:49:30;8.82;;;1.33;;
22628;SDS011;11481;53.694;9.910;2022-12-29T10:52:00;4.68;;;0.93;;
22628;SDS011;11481;53.694;9.910;2022-12-29T10:54:36;5.95;;;1.13;;
22628;SDS011;11481;53.694;9.910;2022-12-29T10:57:16;1.40;;;0.75;;
22628;SDS011;11481;53.694;9.910;2022-12-29T10:59:51;4.68;;;1.00;;
22628;SDS011;11481;53.694;9.910;2022-12-29T11:07:37;2.90;;;0.60;;
22628;SDS011;11481;53.694;9.910;2022-12-29T11:10:18;3.88;;;0.63;;
22628;SDS011;11481;53.694;9.910;2022-12-29T11:13:15;1.60;;;0.77;;
22628;SDS011;11481;53.694;9.910;2022-12-29T11:15:45;1.23;;;0.40;;
22628;SDS011;11481;53.694;9.910;2022-12-29T11:18:26;1.60;;;0.70;;
22628;SDS011;11481;53.694;9.910;2022-12-29T11:21:07;1.95;;;0.40;;
22628;SDS011;11481;53.694;9.910;2022-12-29T11:23:59;1.77;;;0.55;;
22628;SDS011;11481;53.694;9.910;2022-12-29T11:26:31;4.45;;;0.85;;
22628;SDS011;11481;53.694;9.910;2022-12-29T11:31:46;3.25;;;0.50;;
22628;SDS011;11481;53.694;9.910;2022-12-29T11:34:34;5.65;;;0.60;;
22628;SDS011;11481;53.694;9.910;2022-12-29T11:37:26;7.72;;;0.50;;
22628;SDS011;11481;53.694;9.910;2022-12-29T11:40:15;2.55;;;0.35;;
22628;SDS011;11481;53.694;9.910;2022-12-29T11:42:48;2.28;;;0.95;;
22628;SDS011;11481;53.694;9.910;2022-12-29T11:45:19;5.03;;;0.77;;
22628;SDS011;11481;53.694;9.910;2022-12-29T11:48:07;1.13;;;0.40;;
22628;SDS011;11481;53.694;9.910;2022-12-29T11:50:41;1.10;;;0.50;;
22628;SDS011;11481;53.694;9.910;2022-12-29T11:53:16;4.30;;;0.47;;
22628;SDS011;11481;53.694;9.910;2022-12-29T11:55:50;0.60;;;0.50;;
22628;SDS011;11481;53.694;9.910;2022-12-29T11:58:28;2.58;;;0.52;;
22628;SDS011;11481;53.694;9.910;2022-12-29T12:00:55;1.35;;;0.40;;
22628;SDS011;11481;53.694;9.910;2022-12-29T12:03:24;1.17;;;0.43;;
22628;SDS011;11481;53.694;9.910;2022-12-29T12:05:57;1.67;;;0.80;;
22628;SDS011;11481;53.694;9.910;2022-12-29T12:11:10;0.50;;;0.35;;
22628;SDS011;11481;53.694;9.910;2022-12-29T12:16:42;0.43;;;0.32;;
22628;SDS011;11481;53.694;9.910;2022-12-29T12:19:14;1.20;;;0.35;;
22628;SDS011;11481;53.694;9.910;2022-12-29T12:21:56;1.83;;;0.40;;
22628;SDS011;11481;53.694;9.910;2022-12-29T12:30:05;4.03;;;0.35;;
22628;SDS011;11481;53.694;9.910;2022-12-29T12:32:46;1.40;;;0.60;;
22628;SDS011;11481;53.694;9.910;2022-12-29T12:35:26;2.60;;;0.65;;
22628;SDS011;11481;53.694;9.910;2022-12-29T12:41:13;2.05;;;0.70;;
22628;SDS011;11481;53.694;9.910;2022-12-29T12:44:07;2.38;;;0.63;;
22628;SDS011;11481;53.694;9.910;2022-12-29T12:52:18;1.10;;;0.40;;
22628;SDS011;11481;53.694;9.910;2022-12-29T12:57:45;8.43;;;0.45;;
22628;SDS011;11481;53.694;9.910;2022-12-29T13:00:22;0.98;;;0.40;;
22628;SDS011;11481;53.694;9.910;2022-12-29T13:06:01;0.40;;;0.10;;
22628;SDS011;11481;53.694;9.910;2022-12-29T13:11:13;0.50;;;0.20;;
22628;SDS011;11481;53.694;9.910;2022-12-29T13:13:56;2.30;;;0.40;;
22628;SDS011;11481;53.694;9.910;2022-12-29T13:16:44;3.92;;;0.98;;
22628;SDS011;11481;53.694;9.910;2022-12-29T13:19:30;1.17;;;0.65;;
22628;SDS011;11481;53.694;9.910;2022-12-29T13:22:21;1.20;;;0.38;;
22628;SDS011;11481;53.694;9.910;2022-12-29T13:28:06;3.17;;;0.52;;
22628;SDS011;11481;53.694;9.910;2022-12-29T13:34:00;0.82;;;0.50;;
22628;SDS011;11481;53.694;9.910;2022-12-29T13:36:42;0.75;;;0.30;;
22628;SDS011;11481;53.694;9.910;2022-12-29T13:39:16;3.88;;;1.13;;
22628;SDS011;11481;53.694;9.910;2022-12-29T13:41:50;6.40;;;0.60;;
22628;SDS011;11481;53.694;9.910;2022-12-29T13:44:23;2.08;;;0.50;;
22628;SDS011;11481;53.694;9.910;2022-12-29T13:47:04;4.22;;;0.30;;
22628;SDS011;11481;53.694;9.910;2022-12-29T13:49:45;0.68;;;0.32;;
22628;SDS011;11481;53.694;9.910;2022-12-29T13:52:16;4.53;;;0.70;;
22628;SDS011;11481;53.694;9.910;2022-12-29T13:55:02;1.75;;;0.60;;
22628;SDS011;11481;53.694;9.910;2022-12-29T13:57:54;0.98;;;0.40;;
22628;SDS011;11481;53.694;9.910;2022-12-29T14:01:09;7.15;;;0.57;;
22628;SDS011;11481;53.694;9.910;2022-12-29T14:03:52;1.50;;;0.30;;
22628;SDS011;11481;53.694;9.910;2022-12-29T14:06:34;0.15;;;0.15;;
22628;SDS011;11481;53.694;9.910;2022-12-29T14:09:28;2.63;;;0.43;;
22628;SDS011;11481;53.694;9.910;2022-12-29T14:12:20;0.38;;;0.25;;
22628;SDS011;11481;53.694;9.910;2022-12-29T14:15:02;0.95;;;0.80;;
22628;SDS011;11481;53.694;9.910;2022-12-29T14:17:30;4.75;;;0.28;;
22628;SDS011;11481;53.694;9.910;2022-12-29T14:19:57;0.00;;;0.00;;
22628;SDS011;11481;53.694;9.910;2022-12-29T14:22:24;8.82;;;0.45;;
22628;SDS011;11481;53.694;9.910;2022-12-29T14:24:58;0.08;;;0.05;;
22628;SDS011;11481;53.694;9.910;2022-12-29T14:29:55;0.85;;;0.47;;
22628;SDS011;11481;53.694;9.910;2022-12-29T14:37:32;0.10;;;0.10;;
22628;SDS011;11481;53.694;9.910;2022-12-29T14:43:11;2.20;;;0.38;;
22628;SDS011;11481;53.694;9.910;2022-12-29T14:45:40;1.80;;;0.47;;
22628;SDS011;11481;53.694;9.910;2022-12-29T14:48:21;0.32;;;0.20;;
22628;SDS011;11481;53.694;9.910;2022-12-29T14:50:59;0.03;;;0.00;;
22628;SDS011;11481;53.694;9.910;2022-12-29T14:53:44;2.47;;;0.47;;
22628;SDS011;11481;53.694;9.910;2022-12-29T14:56:19;2.42;;;0.38;;
22628;SDS011;11481;53.694;9.910;2022-12-29T14:58:52;0.10;;;0.10;;
22628;SDS011;11481;53.694;9.910;2022-12-29T15:03:57;5.47;;;0.13;;
22628;SDS011;11481;53.694;9.910;2022-12-29T15:06:28;0.05;;;0.05;;
22628;SDS011;11481;53.694;9.910;2022-12-29T15:11:55;4.50;;;0.28;;
22628;SDS011;11481;53.694;9.910;2022-12-29T15:17:09;0.77;;;0.30;;
22628;SDS011;11481;53.694;9.910;2022-12-29T15:19:49;7.25;;;0.60;;
22628;SDS011;11481;53.694;9.910;2022-12-29T15:22:15;5.63;;;0.73;;
22628;SDS011;11481;53.694;9.910;2022-12-29T15:24:43;0.20;;;0.13;;
22628;SDS011;11481;53.694;9.910;2022-12-29T15:27:14;0.40;;;0.20;;
22628;SDS011;11481;53.694;9.910;2022-12-29T15:29:45;1.08;;;0.32;;
22628;SDS011;11481;53.694;9.910;2022-12-29T15:32:16;0.00;;;0.00;;
22628;SDS011;11481;53.694;9.910;2022-12-29T15:34:44;7.05;;;0.50;;
22628;SDS011;11481;53.694;9.910;2022-12-29T15:37:24;0.30;;;0.30;;
22628;SDS011;11481;53.694;9.910;2022-12-29T15:39:53;0.20;;;0.20;;
22628;SDS011;11481;53.694;9.910;2022-12-29T15:42:45;2.55;;;0.57;;
22628;SDS011;11481;53.694;9.910;2022-12-29T15:45:33;0.80;;;0.32;;
22628;SDS011;11481;53.694;9.910;2022-12-29T15:48:02;1.15;;;0.65;;
22628;SDS011;11481;53.694;9.910;2022-12-29T15:50:34;4.30;;;0.60;;
22628;SDS011;11481;53.694;9.910;2022-12-29T15:53:03;2.00;;;0.25;;
22628;SDS011;11481;53.694;9.910;2022-12-29T15:55:38;1.02;;;0.50;;
22628;SDS011;11481;53.694;9.910;2022-12-29T15:58:27;1.85;;;0.45;;
22628;SDS011;11481;53.694;9.910;2022-12-29T16:00:56;9.88;;;0.90;;
22628;SDS011;11481;53.694;9.910;2022-12-29T16:03:27;6.90;;;0.45;;
22628;SDS011;11481;53.694;9.910;2022-12-29T16:06:09;3.05;;;0.70;;
22628;SDS011;11481;53.694;9.910;2022-12-29T16:08:57;6.10;;;0.73;;
22628;SDS011;11481;53.694;9.910;2022-12-29T16:11:26;4.70;;;0.60;;
22628;SDS011;11481;53.694;9.910;2022-12-29T16:13:58;0.43;;;0.38;;
22628;SDS011;11481;53.694;9.910;2022-12-29T16:16:26;1.27;;;0.43;;
22628;SDS011;11481;53.694;9.910;2022-12-29T16:18:56;9.55;;;0.77;;
22628;SDS011;11481;53.694;9.910;2022-12-29T16:21:28;1.17;;;0.30;;
22628;SDS011;11481;53.694;9.910;2022-12-29T16:24:02;3.17;;;0.82;;
22628;SDS011;11481;53.694;9.910;2022-12-29T16:26:44;0.77;;;0.38;;
22628;SDS011;11481;53.694;9.910;2022-12-29T16:29:16;5.00;;;0.80;;
22628;SDS011;11481;53.694;9.910;2022-12-29T16:37:00;5.55;;;0.80;;
22628;SDS011;11481;53.694;9.910;2022-12-29T16:47:47;0.93;;;0.40;;
22628;SDS011;11481;53.694;9.910;2022-12-29T16:50:17;1.52;;;0.65;;
22628;SDS011;11481;53.694;9.910;2022-12-29T16:52:54;3.17;;;1.35;;
22628;SDS011;11481;53.694;9.910;2022-12-29T16:55:20;4.95;;;1.05;;
22628;SDS011;11481;53.694;9.910;2022-12-29T16:57:47;2.03;;;0.65;;
22628;SDS011;11481;53.694;9.910;2022-12-29T17:00:19;7.50;;;1.05;;
22628;SDS011;11481;53.694;9.910;2022-12-29T17:02:50;8.23;;;0.80;;
22628;SDS011;11481;53.694;9.910;2022-12-29T17:05:20;8.88;;;0.93;;
22628;SDS011;11481;53.694;9.910;2022-12-29T17:07:47;4.93;;;0.88;;
22628;SDS011;11481;53.694;9.910;2022-12-29T17:10:14;4.93;;;1.52;;
22628;SDS011;11481;53.694;9.910;2022-12-29T17:12:45;2.22;;;0.93;;
22628;SDS011;11481;53.694;9.910;2022-12-29T17:17:58;1.02;;;0.50;;
22628;SDS011;11481;53.694;9.910;2022-12-29T17:20:26;1.58;;;0.73;;
22628;SDS011;11481;53.694;9.910;2022-12-29T17:22:55;1.05;;;0.50;;
22628;SDS011;11481;53.694;9.910;2022-12-29T17:25:23;4.88;;;0.85;;
22628;SDS011;11481;53.694;9.910;2022-12-29T17:27:55;1.33;;;1.00;;
22628;SDS011;11481;53.694;9.910;2022-12-29T17:30:26;3.22;;;0.80;;